Time;durP1;ratioP1;P1;durP2;ratioP2;P2;SDS_P1;SDS_P2;PMS_P1;PMS_P2;Temp;Humidity;BMP_temperature;BMP_pressure;BME280_temperature;BME280_humidity;BME280_pressure;Samples;Min_cycle;Max_cycle;Signal;HPM_P1;HPM_P2
2021/11/07 00:04:45;;;;;;;13.98;10.90;;;2.60;99.90;;;;;;5017188;28;20037;-82
2021/11/07 00:09:49;;;;;;;13.73;10.98;;;2.50;99.90;;;;;;5017311;28;20053;-82
2021/11/07 00:12:18;;;;;;;15.07;11.27;;;2.70;99.90;;;;;;5014873;28;20026;-81
2021/11/07 00:14:49;;;;;;;16.42;12.10;;;2.80;99.90;;;;;;5029871;28;20069;-83
2021/11/07 00:17:17;;;;;;;;;;;2.60;99.90;;;;;;5007423;28;20179;-81
2021/11/07 00:19:49;;;;;;;17.67;12.77;;;2.50;99.90;;;;;;5017036;28;19913;-81
2021/11/07 00:22:37;;;;;;;19.95;12.85;;;2.40;99.90;;;;;;5023122;28;20073;-83
2021/11/07 00:25:15;;;;;;;18.02;12.20;;;2.40;99.90;;;;;;5014898;28;20019;-81
2021/11/07 00:27:49;;;;;;;15.07;11.32;;;2.30;99.90;;;;;;5016541;28;20022;-82
2021/11/07 00:30:28;;;;;;;16.67;11.88;;;2.20;99.90;;;;;;5016057;28;20026;-81
2021/11/07 00:38:03;;;;;;;16.05;11.23;;;2.20;99.90;;;;;;5005880;28;20541;-82
2021/11/07 00:40:52;;;;;;;15.02;11.25;;;2.20;99.90;;;;;;5001742;28;20023;-82
2021/11/07 00:43:40;;;;;;;16.75;11.82;;;2.20;99.90;;;;;;5027365;23;20050;-77
2021/11/07 00:46:31;;;;;;;16.67;12.57;;;2.20;99.90;;;;;;5015592;28;20505;-78
2021/11/07 00:49:01;;;;;;;16.35;12.32;;;2.20;99.90;;;;;;5016667;28;20075;-78
2021/11/07 00:51:36;;;;;;;15.50;11.88;;;2.20;99.90;;;;;;5014114;28;20018;-78
2021/11/07 00:56:47;;;;;;;15.55;11.57;;;2.30;99.90;;;;;;5015231;28;20073;-77
2021/11/07 01:02:14;;;;;;;17.02;11.20;;;2.30;99.90;;;;;;5006125;28;20021;-76
2021/11/07 01:04:44;;;;;;;15.05;11.20;;;2.30;99.90;;;;;;5011125;28;20026;-77
2021/11/07 01:07:10;;;;;;;17.23;12.10;;;2.30;99.90;;;;;;5009112;28;20037;-77
2021/11/07 01:09:35;;;;;;;16.35;11.02;;;2.30;99.90;;;;;;5014136;28;20026;-77
2021/11/07 01:12:01;;;;;;;14.60;10.80;;;2.40;99.90;;;;;;5006136;28;20029;-76
2021/11/07 01:14:26;;;;;;;13.88;11.63;;;2.40;99.90;;;;;;5007402;28;20038;-79
2021/11/07 01:16:52;;;;;;;14.07;10.18;;;2.40;99.90;;;;;;5016915;28;20121;-76
2021/11/07 01:19:18;;;;;;;13.30;11.52;;;2.50;99.90;;;;;;5021624;28;20026;-77
2021/11/07 01:21:46;;;;;;;13.57;9.70;;;2.50;99.90;;;;;;5017511;28;20486;-77
2021/11/07 01:24:20;;;;;;;11.88;9.73;;;2.50;99.90;;;;;;5018263;28;20018;-77
2021/11/07 01:26:53;;;;;;;13.55;9.70;;;2.50;99.90;;;;;;5016135;28;20518;-77
2021/11/07 01:29:20;;;;;;;10.50;9.40;;;2.60;99.90;;;;;;5046290;28;20026;-78
2021/11/07 01:31:48;;;;;;;11.77;9.07;;;2.60;99.90;;;;;;5030214;28;20108;-77
2021/11/07 01:37:16;;;;;;;12.82;9.25;;;2.80;99.90;;;;;;5012740;28;20053;-77
2021/11/07 01:42:40;;;;;;;10.63;8.48;;;2.80;99.90;;;;;;5006610;28;20037;-78
2021/11/07 01:45:22;;;;;;;10.50;8.93;;;2.90;99.90;;;;;;5011189;28;20437;-77
2021/11/07 01:47:51;;;;;;;12.68;10.15;;;3.00;99.90;;;;;;4998141;28;20025;-77
2021/11/07 01:50:18;;;;;;;12.38;10.10;;;3.00;99.90;;;;;;5010479;28;20030;-76
2021/11/07 01:52:44;;;;;;;11.60;9.77;;;3.00;99.90;;;;;;5010754;28;20026;-76
2021/11/07 01:55:17;;;;;;;11.77;9.65;;;2.80;99.90;;;;;;5011684;28;20029;-77
2021/11/07 01:57:43;;;;;;;11.13;9.63;;;2.80;99.90;;;;;;5015929;28;20371;-80
2021/11/07 02:00:31;;;;;;;12.43;10.13;;;2.80;99.90;;;;;;5025314;28;20030;-78
2021/11/07 02:02:57;;;;;;;11.68;9.38;;;2.80;99.90;;;;;;5011846;28;20026;-77
2021/11/07 02:05:22;;;;;;;10.50;9.02;;;2.70;99.90;;;;;;5010294;28;20027;-76
2021/11/07 02:07:48;;;;;;;12.65;10.38;;;2.70;99.90;;;;;;5014329;28;20042;-76
2021/11/07 02:10:18;;;;;;;11.55;9.85;;;2.70;99.90;;;;;;5013317;28;20034;-77
2021/11/07 02:12:44;;;;;;;12.10;9.85;;;2.70;99.90;;;;;;5013154;28;20032;-77
2021/11/07 02:15:13;;;;;;;14.38;10.25;;;2.70;99.90;;;;;;5008974;28;20050;-77
2021/11/07 02:17:38;;;;;;;11.10;9.48;;;2.80;99.90;;;;;;5013225;28;20516;-78
2021/11/07 02:20:08;;;;;;;11.57;9.05;;;2.80;99.90;;;;;;5023771;28;20120;-77
2021/11/07 02:22:37;;;;;;;11.77;9.85;;;2.80;99.90;;;;;;5015560;28;20109;-77
2021/11/07 02:25:03;;;;;;;13.13;10.50;;;2.80;99.90;;;;;;5008549;28;20113;-76
2021/11/07 02:27:29;;;;;;;11.77;10.48;;;2.80;99.90;;;;;;5006177;28;20030;-77
2021/11/07 02:29:54;;;;;;;12.35;10.93;;;2.90;99.90;;;;;;5004184;28;20084;-77
2021/11/07 02:32:21;;;;;;;11.00;8.68;;;2.80;99.90;;;;;;4996396;28;20030;-76
2021/11/07 02:34:48;;;;;;;15.70;10.90;;;2.80;99.90;;;;;;5018198;28;20457;-76
2021/11/07 02:37:14;;;;;;;12.80;9.75;;;2.80;99.90;;;;;;5025105;28;20065;-76
2021/11/07 02:39:39;;;;;;;11.45;9.50;;;2.70;99.90;;;;;;5002277;28;20057;-77
2021/11/07 02:42:06;;;;;;;12.15;9.90;;;2.70;99.90;;;;;;5004134;28;20521;-78
2021/11/07 02:44:41;;;;;;;12.55;9.95;;;2.70;99.90;;;;;;5006683;28;20030;-78
2021/11/07 02:47:09;;;;;;;17.52;10.02;;;2.60;99.90;;;;;;5000861;28;20026;-76
2021/11/07 02:49:36;;;;;;;14.32;11.82;;;2.60;99.90;;;;;;5012189;28;20041;-74
2021/11/07 02:52:04;;;;;;;13.75;10.27;;;2.60;99.90;;;;;;5012229;28;20025;-75
2021/11/07 02:54:31;;;;;;;13.68;9.82;;;2.60;99.90;;;;;;5016839;28;20085;-75
2021/11/07 02:57:00;;;;;;;15.88;11.57;;;2.70;99.90;;;;;;5002575;28;20053;-75
2021/11/07 02:59:30;;;;;;;15.15;10.70;;;2.70;99.90;;;;;;5009251;28;20022;-74
2021/11/07 03:01:56;;;;;;;13.65;10.85;;;2.70;99.90;;;;;;5012838;28;20021;-76
2021/11/07 03:04:24;;;;;;;16.27;11.48;;;2.70;99.90;;;;;;5010096;28;20054;-76
2021/11/07 03:06:49;;;;;;;13.20;10.95;;;2.70;99.90;;;;;;4994265;28;20497;-75
2021/11/07 03:09:21;;;;;;;12.82;10.30;;;2.70;99.90;;;;;;4997117;28;20032;-74
2021/11/07 03:11:48;;;;;;;13.63;11.13;;;2.70;99.90;;;;;;5011731;28;20099;-76
2021/11/07 03:14:20;;;;;;;18.45;11.48;;;2.70;99.90;;;;;;5012849;28;20026;-74
2021/11/07 03:16:45;;;;;;;15.00;11.07;;;2.60;99.90;;;;;;5002966;28;20053;-74
2021/11/07 03:19:12;;;;;;;14.38;11.38;;;2.60;99.90;;;;;;5009111;28;20049;-75
2021/11/07 03:21:39;;;;;;;15.68;12.30;;;2.50;99.90;;;;;;5007271;28;20541;-76
2021/11/07 03:24:05;;;;;;;16.77;11.48;;;2.50;99.90;;;;;;5002700;28;20056;-75
2021/11/07 03:26:34;;;;;;;14.93;11.23;;;2.50;99.90;;;;;;5005952;28;20110;-75
2021/11/07 03:29:02;;;;;;;17.30;13.25;;;2.50;99.90;;;;;;5006817;28;20081;-74
2021/11/07 03:34:02;;;;;;;14.65;10.70;;;2.50;99.90;;;;;;5013598;28;20033;-74
2021/11/07 03:36:32;;;;;;;16.65;11.30;;;2.60;99.90;;;;;;5011310;28;20072;-74
2021/11/07 03:38:58;;;;;;;15.95;12.63;;;2.50;99.90;;;;;;5013766;28;20433;-75
2021/11/07 03:41:23;;;;;;;18.13;12.60;;;2.40;99.90;;;;;;5005673;28;20030;-76
2021/11/07 03:43:49;;;;;;;17.65;12.40;;;2.40;99.90;;;;;;5013406;28;20025;-75
2021/11/07 03:46:15;;;;;;;15.20;11.30;;;2.30;99.90;;;;;;5005798;28;20034;-76
2021/11/07 03:48:41;;;;;;;17.15;12.45;;;2.30;99.90;;;;;;5013513;28;20022;-76
2021/11/07 03:51:11;;;;;;;16.27;13.20;;;2.30;99.90;;;;;;5012004;28;20030;-74
2021/11/07 03:53:38;;;;;;;13.80;12.30;;;2.20;99.90;;;;;;5011004;28;20445;-75
2021/11/07 03:56:04;;;;;;;19.90;13.38;;;2.20;99.90;;;;;;5012104;28;20505;-75
2021/11/07 03:58:29;;;;;;;17.02;11.93;;;2.20;99.90;;;;;;5026907;28;20090;-73
2021/11/07 04:00:55;;;;;;;15.88;11.93;;;2.20;99.90;;;;;;5028289;28;20061;-74
2021/11/07 04:03:21;;;;;;;18.92;12.55;;;2.10;99.90;;;;;;5013004;28;20030;-74
2021/11/07 04:05:46;;;;;;;18.35;12.50;;;2.20;99.90;;;;;;5018981;28;20026;-73
2021/11/07 04:08:12;;;;;;;17.45;12.00;;;2.20;99.90;;;;;;5030331;28;20052;-74
2021/11/07 04:10:38;;;;;;;15.65;11.45;;;2.30;99.90;;;;;;5033476;28;20037;-74
2021/11/07 04:13:08;;;;;;;16.25;11.57;;;2.40;99.90;;;;;;5030259;28;20021;-75
2021/11/07 04:15:34;;;;;;;19.07;12.53;;;2.40;99.90;;;;;;5011778;28;20092;-74
2021/11/07 04:18:02;;;;;;;14.27;12.10;;;2.40;99.90;;;;;;5010671;28;20344;-74
2021/11/07 04:20:28;;;;;;;17.50;11.50;;;2.40;99.90;;;;;;5003632;28;20565;-74
2021/11/07 04:22:53;;;;;;;13.25;10.55;;;2.40;99.90;;;;;;5025290;28;20033;-75
2021/11/07 04:25:19;;;;;;;15.52;12.43;;;2.30;99.90;;;;;;5034792;28;20472;-75
2021/11/07 04:27:45;;;;;;;13.52;10.52;;;2.30;99.90;;;;;;5028463;28;20018;-74
2021/11/07 04:30:11;;;;;;;16.52;11.45;;;2.30;99.90;;;;;;5028942;28;20010;-74
2021/11/07 04:32:37;;;;;;;15.00;11.95;;;2.20;99.90;;;;;;5034311;28;20030;-75
2021/11/07 04:35:04;;;;;;;14.38;11.10;;;2.20;99.90;;;;;;5029425;28;20494;-76
2021/11/07 04:37:30;;;;;;;13.65;11.52;;;2.20;99.90;;;;;;5013868;28;20026;-74
2021/11/07 04:39:56;;;;;;;13.73;9.88;;;2.20;99.90;;;;;;5011591;28;20026;-76
2021/11/07 04:42:22;;;;;;;13.50;10.45;;;2.20;99.90;;;;;;5005630;28;20022;-74
2021/11/07 04:44:48;;;;;;;15.27;11.70;;;2.10;99.90;;;;;;5006417;28;20065;-74
2021/11/07 04:47:14;;;;;;;16.15;11.82;;;2.10;99.90;;;;;;5019676;28;20092;-74
2021/11/07 04:49:39;;;;;;;12.45;11.00;;;2.10;99.90;;;;;;5031445;28;20033;-75
2021/11/07 04:52:05;;;;;;;12.13;10.23;;;2.10;99.90;;;;;;5029023;28;20057;-75
2021/11/07 04:54:31;;;;;;;13.80;10.65;;;2.20;99.90;;;;;;5017050;28;20034;-76
2021/11/07 04:56:57;;;;;;;15.55;10.63;;;2.30;99.90;;;;;;5013490;28;20041;-75
2021/11/07 04:59:24;;;;;;;11.48;9.88;;;2.30;99.90;;;;;;5007486;28;20041;-76
2021/11/07 05:01:50;;;;;;;15.57;11.25;;;2.40;99.90;;;;;;5017442;28;20033;-76
2021/11/07 05:04:17;;;;;;;14.27;11.02;;;2.50;99.90;;;;;;5015311;28;20088;-75
2021/11/07 05:06:43;;;;;;;11.80;10.02;;;2.50;99.90;;;;;;5015516;28;20029;-74
2021/11/07 05:09:09;;;;;;;11.20;9.93;;;2.50;99.90;;;;;;5009197;28;20085;-74
2021/11/07 05:11:35;;;;;;;14.15;10.70;;;2.60;99.90;;;;;;5015544;28;20030;-75
2021/11/07 05:14:01;;;;;;;12.48;10.07;;;2.60;99.90;;;;;;5017043;28;20021;-76
2021/11/07 05:16:27;;;;;;;14.48;10.20;;;2.50;99.90;;;;;;5017222;28;20034;-76
2021/11/07 05:18:53;;;;;;;14.88;11.30;;;2.50;99.90;;;;;;5014182;28;20405;-75
2021/11/07 05:21:20;;;;;;;12.18;10.57;;;2.30;99.90;;;;;;5015507;28;20018;-75
2021/11/07 05:23:46;;;;;;;17.00;11.20;;;2.30;99.90;;;;;;5014133;28;20018;-74
2021/11/07 05:26:12;;;;;;;13.70;11.07;;;2.20;99.90;;;;;;5016410;28;20052;-75
2021/11/07 05:28:38;;;;;;;15.32;10.93;;;2.20;99.90;;;;;;5011602;28;20076;-75
2021/11/07 05:31:03;;;;;;;15.30;10.45;;;2.10;99.90;;;;;;5008495;28;20035;-75
2021/11/07 05:33:30;;;;;;;13.32;11.20;;;2.10;99.90;;;;;;5007465;28;20053;-76
2021/11/07 05:35:55;;;;;;;13.23;10.90;;;2.10;99.90;;;;;;5017220;28;20030;-75
2021/11/07 05:38:21;;;;;;;12.40;10.98;;;2.10;99.90;;;;;;5012165;28;20049;-76
2021/11/07 05:40:47;;;;;;;13.52;11.95;;;2.10;99.90;;;;;;5007387;28;20022;-75
2021/11/07 05:43:12;;;;;;;17.55;12.93;;;2.10;99.90;;;;;;5010893;28;20033;-76
2021/11/07 05:45:38;;;;;;;15.98;11.32;;;2.10;99.90;;;;;;5013875;28;20053;-76
2021/11/07 05:48:06;;;;;;;17.75;11.68;;;2.10;99.90;;;;;;5013031;28;20034;-76
2021/11/07 05:50:33;;;;;;;13.65;11.63;;;2.10;99.90;;;;;;5013685;28;20029;-76
2021/11/07 05:52:59;;;;;;;16.27;12.43;;;2.10;99.90;;;;;;5014150;28;20026;-76
2021/11/07 05:55:24;;;;;;;15.80;12.65;;;2.10;99.90;;;;;;5010978;28;20040;-75
2021/11/07 05:57:50;;;;;;;15.43;12.65;;;2.10;99.90;;;;;;5008674;28;20168;-75
2021/11/07 06:00:18;;;;;;;17.17;10.27;;;2.10;99.90;;;;;;4999971;28;20054;-76
2021/11/07 06:02:44;;;;;;;12.48;10.95;;;2.20;99.90;;;;;;5005027;28;20049;-75
2021/11/07 06:05:09;;;;;;;13.10;10.25;;;2.30;99.90;;;;;;5011113;28;20034;-75
2021/11/07 06:07:35;;;;;;;13.10;10.98;;;2.40;99.90;;;;;;5013356;28;20092;-75
2021/11/07 06:10:00;;;;;;;13.98;10.98;;;2.50;99.90;;;;;;5012421;28;20049;-74
2021/11/07 06:12:26;;;;;;;16.38;11.43;;;2.70;99.90;;;;;;5009528;28;20022;-75
2021/11/07 06:14:52;;;;;;;14.32;10.07;;;2.70;99.90;;;;;;5012049;28;20058;-75
2021/11/07 06:17:18;;;;;;;12.52;9.43;;;2.70;99.90;;;;;;5007861;28;20022;-74
2021/11/07 06:19:44;;;;;;;12.48;9.73;;;2.70;99.90;;;;;;5002132;28;20397;-74
2021/11/07 06:22:10;;;;;;;16.20;9.82;;;2.70;99.90;;;;;;4997177;28;20046;-76
2021/11/07 06:24:35;;;;;;;12.27;9.32;;;2.70;99.90;;;;;;5004835;28;20050;-76
2021/11/07 06:27:03;;;;;;;15.95;10.98;;;2.90;99.90;;;;;;5028955;28;20463;-75
2021/11/07 06:29:29;;;;;;;12.20;9.70;;;3.00;99.90;;;;;;5010340;28;20516;-76
2021/11/07 06:31:56;;;;;;;11.98;9.48;;;3.00;99.90;;;;;;5008740;28;20027;-75
2021/11/07 06:34:23;;;;;;;11.43;9.48;;;3.10;99.90;;;;;;5008345;28;20395;-75
2021/11/07 06:36:49;;;;;;;11.93;10.48;;;3.20;99.90;;;;;;5010536;28;20029;-75
2021/11/07 06:39:16;;;;;;;13.52;11.15;;;3.20;99.90;;;;;;5013780;28;20064;-74
2021/11/07 06:41:43;;;;;;;11.93;9.77;;;3.30;99.90;;;;;;5010027;28;20105;-75
2021/11/07 06:44:09;;;;;;;11.85;9.57;;;3.40;99.90;;;;;;5049929;23;20046;-75
2021/11/07 06:46:36;;;;;;;12.05;9.63;;;3.30;99.90;;;;;;5001182;28;20082;-76
2021/11/07 06:49:07;;;;;;;11.23;9.20;;;3.40;99.90;;;;;;4986746;28;20089;-76
2021/11/07 06:51:33;;;;;;;11.15;9.57;;;3.50;99.90;;;;;;4992318;28;20145;-76
2021/11/07 06:53:59;;;;;;;10.57;9.50;;;3.50;99.90;;;;;;4994142;28;20053;-77
2021/11/07 06:56:26;;;;;;;13.55;10.43;;;3.50;99.90;;;;;;5006432;28;20033;-77
2021/11/07 06:58:55;;;;;;;12.15;10.55;;;3.60;99.90;;;;;;4987512;28;20544;-76
2021/11/07 07:01:20;;;;;;;11.65;10.13;;;3.70;99.90;;;;;;4995798;28;20512;-76
2021/11/07 07:03:47;;;;;;;12.45;10.75;;;3.80;99.90;;;;;;5003386;28;20100;-76
2021/11/07 07:06:14;;;;;;;10.55;9.40;;;3.90;99.90;;;;;;4997771;28;20034;-75
2021/11/07 07:08:52;;;;;;;9.90;8.85;;;4.10;99.90;;;;;;4986838;28;20450;-77
2021/11/07 07:11:28;;;;;;;12.82;10.45;;;4.20;99.90;;;;;;4989643;28;20033;-77
2021/11/07 07:13:59;;;;;;;12.23;10.07;;;4.40;99.90;;;;;;4987466;28;20559;-76
2021/11/07 07:19:24;;;;;;;13.73;10.27;;;4.50;99.90;;;;;;4993047;28;20026;-77
2021/11/07 07:35:07;;;;;;;11.52;10.13;;;4.60;99.90;;;;;;4989602;28;20045;-78
2021/11/07 07:37:32;;;;;;;12.63;10.05;;;4.60;99.90;;;;;;4993913;28;20061;-77
2021/11/07 07:39:58;;;;;;;14.88;10.30;;;4.70;99.90;;;;;;4998045;28;20026;-77
2021/11/07 07:42:24;;;;;;;11.75;10.20;;;4.80;99.90;;;;;;4988297;28;20053;-77
2021/11/07 07:44:52;;;;;;;12.70;10.13;;;4.90;99.90;;;;;;4996489;28;20053;-77
2021/11/07 07:47:18;;;;;;;11.23;9.70;;;5.00;99.90;;;;;;4988752;28;20031;-77
2021/11/07 07:49:47;;;;;;;12.88;10.98;;;5.30;99.90;;;;;;4987745;28;20026;-77
2021/11/07 07:52:12;;;;;;;11.65;10.38;;;5.50;99.90;;;;;;4993659;28;20068;-77
2021/11/07 07:54:38;;;;;;;11.38;10.23;;;5.80;99.90;;;;;;4989907;28;20026;-77
2021/11/07 07:57:03;;;;;;;10.02;8.82;;;5.90;99.90;;;;;;4991825;28;20038;-76
2021/11/07 07:59:29;;;;;;;13.10;8.98;;;6.20;99.90;;;;;;4984986;28;20049;-76
2021/11/07 08:01:58;;;;;;;10.50;8.95;;;6.20;99.90;;;;;;4984011;28;20468;-76
2021/11/07 08:04:23;;;;;;;11.38;10.18;;;6.20;99.90;;;;;;4995425;28;20438;-76
2021/11/07 08:06:49;;;;;;;10.65;9.52;;;6.20;99.90;;;;;;4993229;28;20168;-77
2021/11/07 08:09:15;;;;;;;10.43;9.23;;;6.00;99.90;;;;;;4990418;28;20468;-76
2021/11/07 08:11:41;;;;;;;12.07;10.05;;;6.00;99.90;;;;;;4987902;28;20046;-77
2021/11/07 08:14:07;;;;;;;11.73;9.52;;;5.90;99.90;;;;;;4987066;28;20033;-77
2021/11/07 08:16:34;;;;;;;11.05;9.73;;;5.90;99.90;;;;;;4999749;28;21119;-75
2021/11/07 08:19:00;;;;;;;12.85;9.30;;;5.90;99.90;;;;;;4998233;28;20486;-76
2021/11/07 08:21:30;;;;;;;11.18;9.25;;;5.90;99.90;;;;;;4992441;28;20036;-76
2021/11/07 08:23:55;;;;;;;10.07;8.10;;;5.90;99.90;;;;;;4991802;28;20027;-77
2021/11/07 08:26:22;;;;;;;10.85;9.75;;;6.00;99.90;;;;;;4994138;28;20024;-75
2021/11/07 08:28:48;;;;;;;9.82;8.80;;;6.10;99.90;;;;;;4998042;28;20086;-76
2021/11/07 08:31:22;;;;;;;10.52;8.43;;;6.10;99.90;;;;;;5003530;28;20113;-76
2021/11/07 08:33:48;;;;;;;11.80;8.65;;;6.10;99.90;;;;;;4995140;28;20058;-76
2021/11/07 08:36:23;;;;;;;11.70;10.05;;;6.20;99.90;;;;;;5018932;28;20034;-76
2021/11/07 08:38:53;;;;;;;10.80;9.10;;;6.20;99.90;;;;;;5003244;28;20030;-78
2021/11/07 08:41:21;;;;;;;10.82;8.40;;;6.20;99.90;;;;;;5007361;28;20041;-77
2021/11/07 09:05:35;;;;;;;12.95;8.93;;;6.40;99.90;;;;;;4996797;28;20037;-76
2021/11/07 09:10:35;;;;;;;9.32;8.07;;;6.60;99.90;;;;;;4991416;28;20033;-77
2021/11/07 09:13:03;;;;;;;9.93;8.05;;;6.70;99.90;;;;;;4991818;28;20133;-77
2021/11/07 09:15:31;;;;;;;9.00;7.82;;;7.10;99.90;;;;;;5002266;28;20022;-77
2021/11/07 09:17:59;;;;;;;9.35;8.35;;;7.50;99.90;;;;;;5004032;28;20030;-77
2021/11/07 09:20:33;;;;;;;10.27;7.75;;;7.60;99.90;;;;;;5004167;28;20007;-76
2021/11/07 09:23:47;;;;;;;9.82;7.82;;;7.50;99.90;;;;;;4991076;28;20033;-77
2021/11/07 09:25:50;;;;;;;10.05;7.00;;;7.70;99.90;;;;;;4990072;28;20039;-77
2021/11/07 09:28:26;;;;;;;8.10;6.50;;;8.30;99.90;;;;;;5011123;28;20014;-75
2021/11/07 09:30:59;;;;;;;8.40;7.25;;;8.60;99.90;;;;;;5025970;28;20022;-76
2021/11/07 09:38:48;;;;;;;6.88;5.88;;;8.50;99.90;;;;;;4995484;28;20066;-76
2021/11/07 09:46:33;;;;;;;6.43;5.30;;;8.30;99.90;;;;;;4997764;28;20050;-77
2021/11/07 09:49:15;;;;;;;6.85;6.15;;;8.40;99.90;;;;;;4995727;28;20034;-77
2021/11/07 09:51:42;;;;;;;6.75;6.07;;;8.60;99.90;;;;;;4994442;28;20442;-77
2021/11/07 09:54:10;;;;;;;7.13;5.65;;;8.80;99.90;;;;;;4998192;28;20034;-76
2021/11/07 09:56:35;;;;;;;5.68;5.18;;;9.00;99.90;;;;;;4989782;28;20045;-76
2021/11/07 09:59:02;;;;;;;5.53;4.65;;;9.20;99.90;;;;;;4993517;28;20046;-76
2021/11/07 10:01:29;;;;;;;4.22;3.72;;;9.20;99.90;;;;;;4996830;28;20027;-76
2021/11/07 10:03:57;;;;;;;5.18;4.40;;;9.30;99.90;;;;;;4992203;28;20101;-76
2021/11/07 10:06:37;;;;;;;4.22;3.83;;;9.30;99.90;;;;;;4977421;28;20035;-76
2021/11/07 10:09:05;;;;;;;4.30;3.90;;;9.50;99.90;;;;;;4990125;28;20034;-76
2021/11/07 10:11:36;;;;;;;7.18;4.57;;;9.50;99.90;;;;;;5005493;28;20078;-77
2021/11/07 10:14:15;;;;;;;4.38;3.33;;;9.40;99.90;;;;;;4986775;28;20034;-76
2021/11/07 10:16:47;;;;;;;3.25;2.67;;;9.40;99.90;;;;;;4987413;28;20030;-77
2021/11/07 10:19:22;;;;;;;3.70;2.92;;;9.50;99.90;;;;;;4992091;28;20032;-78
2021/11/07 10:21:50;;;;;;;3.67;2.45;;;9.60;99.90;;;;;;4995943;28;20435;-78
2021/11/07 10:24:21;;;;;;;3.33;2.35;;;9.80;99.90;;;;;;5003002;28;20022;-79
2021/11/07 10:29:51;;;;;;;2.57;2.27;;;10.00;99.90;;;;;;4986937;28;20443;-79
2021/11/07 10:32:33;;;;;;;2.55;2.08;;;10.20;99.90;;;;;;4999717;28;20018;-79
2021/11/07 10:47:31;;;;;;;2.80;2.40;;;10.90;99.90;;;;;;4993253;28;20033;-79
2021/11/07 10:52:49;;;;;;;2.13;1.83;;;11.10;99.90;;;;;;5004023;28;20025;-79
2021/11/07 10:55:24;;;;;;;2.70;1.92;;;11.20;99.90;;;;;;5000293;28;20082;-79
2021/11/07 10:58:04;;;;;;;1.85;1.45;;;11.20;99.90;;;;;;5017353;28;20022;-79
2021/11/07 11:00:34;;;;;;;2.88;1.88;;;11.10;99.90;;;;;;5026292;28;20018;-79
2021/11/07 11:03:11;;;;;;;2.15;1.95;;;11.00;99.90;;;;;;5012278;28;20046;-77
2021/11/07 11:05:47;;;;;;;2.13;1.75;;;11.00;99.90;;;;;;5003048;28;20121;-79
2021/11/07 11:08:18;;;;;;;2.35;2.08;;;11.00;99.90;;;;;;4994370;28;20026;-80
2021/11/07 11:11:09;;;;;;;4.13;1.95;;;10.90;99.90;;;;;;4991098;28;20015;-78
2021/11/07 11:19:29;;;;;;;2.45;1.98;;;11.20;99.90;;;;;;4990896;28;20034;-79
2021/11/07 11:30:10;;;;;;;1.42;1.30;;;11.40;99.90;;;;;;5028988;28;20034;-80
2021/11/07 11:35:25;;;;;;;1.85;1.00;;;11.60;99.90;;;;;;5004270;28;20045;-79
2021/11/07 11:40:50;;;;;;;1.52;0.80;;;11.90;99.90;;;;;;4997525;28;20536;-78
2021/11/07 11:43:33;;;;;;;0.65;0.65;;;12.10;99.90;;;;;;5009145;28;20501;-78
2021/11/07 11:46:07;;;;;;;0.70;0.70;;;12.20;99.90;;;;;;4997632;28;20061;-77
2021/11/07 11:52:22;;;;;;;0.70;0.70;;;12.10;99.90;;;;;;4987905;28;20161;-77
2021/11/07 12:02:50;;;;;;;1.30;0.90;;;12.20;99.90;;;;;;4966817;28;20090;-78
2021/11/07 12:05:38;;;;;;;2.58;1.00;;;12.50;99.90;;;;;;4993938;28;20073;-78
2021/11/07 12:08:13;;;;;;;1.67;0.50;;;12.40;99.90;;;;;;4993968;28;20058;-76
2021/11/07 12:11:00;;;;;;;2.45;0.65;;;12.50;99.90;;;;;;4995144;28;20502;-76
2021/11/07 12:16:23;;;;;;;1.05;0.70;;;12.80;99.90;;;;;;4990409;28;20045;-77
2021/11/07 12:19:08;;;;;;;1.15;0.73;;;12.90;99.90;;;;;;4989029;28;20054;-79
2021/11/07 12:21:54;;;;;;;0.57;0.40;;;13.10;99.90;;;;;;4988245;28;20044;-78
2021/11/07 12:24:22;;;;;;;1.45;0.68;;;13.20;99.90;;;;;;4990276;28;20026;-77
2021/11/07 12:26:48;;;;;;;0.40;0.30;;;13.40;99.90;;;;;;4980228;28;20058;-78
2021/11/07 12:29:40;;;;;;;1.20;0.52;;;13.50;99.90;;;;;;4992239;28;20081;-78
2021/11/07 12:32:09;;;;;;;0.32;0.32;;;13.60;99.90;;;;;;4995816;28;20026;-76
2021/11/07 12:35:23;;;;;;;0.80;0.40;;;13.50;99.90;;;;;;4997076;28;20027;-77
2021/11/07 12:40:46;;;;;;;2.13;0.77;;;13.40;99.90;;;;;;4997570;28;20059;-76
2021/11/07 12:43:15;;;;;;;0.60;0.50;;;13.50;99.90;;;;;;4995561;28;20038;-76
2021/11/07 12:45:46;;;;;;;0.55;0.40;;;13.30;99.90;;;;;;5036957;23;20121;-75
2021/11/07 12:48:33;;;;;;;1.35;0.55;;;13.10;99.90;;;;;;5023176;28;20327;-75
2021/11/07 12:51:00;;;;;;;1.00;0.40;;;13.00;99.90;;;;;;5019841;28;20040;-75
2021/11/07 12:53:30;;;;;;;0.40;0.40;;;13.00;99.90;;;;;;5012800;28;20445;-75
2021/11/07 12:55:55;;;;;;;0.47;0.47;;;12.90;99.90;;;;;;5012159;28;20057;-74
2021/11/07 12:58:21;;;;;;;0.50;0.30;;;12.80;99.90;;;;;;5012987;28;20053;-75
2021/11/07 13:00:48;;;;;;;1.00;0.32;;;12.60;99.90;;;;;;5012755;28;20042;-75
2021/11/07 13:03:16;;;;;;;0.68;0.52;;;12.60;99.90;;;;;;5012458;28;20505;-75
2021/11/07 13:05:43;;;;;;;0.55;0.50;;;12.60;99.90;;;;;;5013484;28;20351;-75
2021/11/07 13:08:20;;;;;;;3.13;1.45;;;12.20;99.90;;;;;;5017924;28;20041;-75
2021/11/07 13:10:53;;;;;;;0.60;0.50;;;12.20;99.90;;;;;;5016673;28;20026;-75
2021/11/07 13:21:12;;;;;;;0.53;0.50;;;12.10;99.90;;;;;;5019135;28;20260;-75
2021/11/07 13:26:35;;;;;;;0.82;0.50;;;11.50;99.90;;;;;;5035278;28;20421;-75
2021/11/07 13:34:33;;;;;;;0.88;0.80;;;11.10;99.90;;;;;;5016470;28;20034;-75
2021/11/07 13:37:01;;;;;;;0.85;0.50;;;11.10;99.90;;;;;;5014621;28;20394;-75
2021/11/07 13:39:36;;;;;;;0.50;0.50;;;11.10;99.90;;;;;;5023585;28;20075;-74
2021/11/07 13:42:11;;;;;;;1.65;0.93;;;11.10;99.90;;;;;;5028631;28;20078;-74
2021/11/07 13:44:56;;;;;;;1.15;0.50;;;11.10;99.90;;;;;;5028478;28;20049;-75
2021/11/07 13:47:51;;;;;;;2.13;0.90;;;11.20;99.90;;;;;;5022085;28;20026;-75
2021/11/07 13:50:21;;;;;;;1.25;0.70;;;11.20;99.90;;;;;;5005074;28;20038;-75
2021/11/07 13:52:51;;;;;;;0.82;0.40;;;11.30;99.90;;;;;;5028478;28;20108;-76
2021/11/07 13:55:21;;;;;;;1.52;0.55;;;11.40;99.90;;;;;;5031435;28;20029;-74
2021/11/07 13:57:47;;;;;;;1.45;0.40;;;11.30;99.90;;;;;;5023589;28;20112;-74
2021/11/07 14:00:21;;;;;;;0.30;0.30;;;11.30;99.90;;;;;;5020221;28;20026;-74
2021/11/07 14:02:55;;;;;;;0.98;0.80;;;11.40;99.90;;;;;;5023213;28;20077;-75
2021/11/07 14:05:21;;;;;;;1.95;0.47;;;11.40;99.90;;;;;;5029464;28;20018;-75
2021/11/07 14:08:03;;;;;;;1.63;0.80;;;11.10;99.90;;;;;;5036285;28;20065;-75
2021/11/07 14:10:31;;;;;;;1.95;0.80;;;11.00;99.90;;;;;;5018995;28;20025;-75
2021/11/07 14:12:58;;;;;;;2.60;0.68;;;11.00;99.90;;;;;;5032987;28;20034;-75
2021/11/07 14:15:34;;;;;;;1.20;0.77;;;11.00;99.90;;;;;;5021729;28;20026;-75
2021/11/07 14:18:29;;;;;;;0.85;0.70;;;11.00;99.90;;;;;;5012881;28;20390;-75
2021/11/07 14:21:04;;;;;;;1.20;0.88;;;10.90;99.90;;;;;;5015401;28;20038;-76
2021/11/07 14:26:16;;;;;;;1.00;0.55;;;10.80;99.90;;;;;;5016681;28;20029;-74
2021/11/07 14:29:19;;;;;;;1.52;0.63;;;10.70;99.90;;;;;;5015669;28;20022;-74
2021/11/07 14:31:58;;;;;;;0.93;0.70;;;10.60;99.90;;;;;;5015194;28;20022;-75
2021/11/07 14:34:34;;;;;;;0.57;0.57;;;10.60;99.90;;;;;;5013755;28;20407;-76
2021/11/07 14:51:27;;;;;;;1.17;0.80;;;10.70;99.90;;;;;;5004769;28;20566;-76
2021/11/07 15:05:23;;;;;;;1.38;0.90;;;10.50;99.90;;;;;;5019694;28;20033;-74
2021/11/07 15:07:56;;;;;;;1.35;0.80;;;10.40;99.90;;;;;;5039907;28;20061;-75
2021/11/07 15:10:39;;;;;;;2.65;1.08;;;10.40;99.90;;;;;;5018798;28;20028;-75
2021/11/07 15:18:51;;;;;;;1.48;0.90;;;10.40;99.90;;;;;;5017870;28;20410;-74
2021/11/07 15:21:34;;;;;;;1.58;0.77;;;10.30;99.90;;;;;;5017191;28;20018;-75
2021/11/07 15:24:04;;;;;;;2.30;1.77;;;10.30;99.90;;;;;;5015935;28;20022;-75
2021/11/07 15:26:38;;;;;;;1.50;0.88;;;10.30;99.90;;;;;;5015957;28;20112;-76
2021/11/07 15:29:13;;;;;;;1.05;0.82;;;10.30;99.90;;;;;;5016846;28;20026;-75
2021/11/07 15:31:39;;;;;;;2.92;1.35;;;10.20;99.90;;;;;;5016082;28;20038;-76
2021/11/07 15:34:33;;;;;;;5.13;2.28;;;10.20;99.90;;;;;;5016451;28;20445;-76
2021/11/07 15:37:00;;;;;;;6.38;3.70;;;10.10;99.90;;;;;;5016557;28;20029;-76
2021/11/07 15:39:27;;;;;;;4.97;3.80;;;10.10;99.90;;;;;;5005429;28;20458;-76
2021/11/07 15:42:16;;;;;;;2.45;1.48;;;10.10;99.90;;;;;;5016606;28;20034;-74
2021/11/07 15:45:02;;;;;;;1.05;0.90;;;10.10;99.90;;;;;;5016206;28;20030;-74
2021/11/07 15:47:33;;;;;;;1.52;1.30;;;10.10;99.90;;;;;;5016197;28;20026;-76
2021/11/07 15:55:51;;;;;;;1.80;1.10;;;9.80;99.90;;;;;;5017877;28;20056;-75
2021/11/07 16:01:39;;;;;;;2.78;1.13;;;9.80;99.90;;;;;;5015953;28;20026;-76
2021/11/07 16:03:45;;;;;;;1.58;1.30;;;9.70;99.90;;;;;;5013016;28;20084;-73
2021/11/07 16:06:40;;;;;;;3.17;1.60;;;9.60;99.90;;;;;;5028389;28;20125;-74
2021/11/07 16:09:17;;;;;;;1.80;1.20;;;9.60;99.90;;;;;;5007510;28;20025;-76